| time (UTC) | temp F | wind direction | speed MPH | gust MPH | rain 1hr in | rain 24hr in | rain mn in | humidity % | barometer mb |
| 20260510060844 | 51 | 0 | 10.0 | 25.0 | 0.10 | 0.13 | 0.11 | 86 | 1020.9 |
| 20260510060353 | 51 | 0 | 10.0 | 19.0 | 0.11 | 0.13 | 0.11 | 86 | 1021.0 |
| 20260510055814 | 51 | 0 | 8.0 | 19.0 | 0.11 | 0.13 | 0.11 | 87 | 1021.2 |
| 20260510055246 | 51 | 0 | 7.0 | 18.0 | 0.12 | 0.13 | 0.11 | 87 | 1021.4 |
| 20260510054954 | 51 | 0 | 8.0 | 18.0 | 0.12 | 0.12 | 0.10 | 87 | 1021.6 |
| 20260510054827 | 51 | 0 | 8.0 | 18.0 | 0.12 | 0.12 | 0.10 | 87 | 1021.6 |
| 20260510054156 | 51 | 0 | 9.0 | 18.0 | 0.12 | 0.12 | 0.10 | 86 | 1021.6 |
| 20260510053916 | 51 | 0 | 7.0 | 18.0 | 0.11 | 0.11 | 0.10 | 86 | 1022.1 |
| 20260510053758 | 51 | 0 | 7.0 | 18.0 | 0.11 | 0.11 | 0.10 | 86 | 1022.1 |
| 20260510053136 | 52 | 0 | 5.0 | 12.0 | 0.11 | 0.11 | 0.09 | 85 | 1022.4 |
| 20260510052638 | 52 | 0 | 5.0 | 13.0 | 0.10 | 0.10 | 0.08 | 85 | 1022.7 |
| 20260510052131 | 53 | 0 | 4.0 | 13.0 | 0.08 | 0.08 | 0.07 | 84 | 1023.1 |
| 20260510051609 | 53 | 0 | 4.0 | 11.0 | 0.06 | 0.06 | 0.04 | 82 | 1023.0 |
| 20260510051114 | 53 | 0 | 4.0 | 12.0 | 0.04 | 0.04 | 0.02 | 81 | 1023.0 |
| 20260510050609 | 54 | 0 | 5.0 | 12.0 | 0.03 | 0.03 | 0.01 | 79 | 1023.1 |
| 20260510050110 | 55 | 0 | 5.0 | 11.0 | 0.02 | 0.02 | 0.00 | 77 | 1022.8 |
| 20260510045554 | 56 | 0 | 4.0 | 11.0 | 0.01 | 0.01 | 0.01 | 74 | 1022.7 |
| 20260510045051 | 57 | 0 | 4.0 | 10.0 | 0.00 | 0.00 | 0.00 | 71 | 1022.7 |
| 20260510044551 | 57 | 0 | 5.0 | 10.0 | 0.00 | 0.00 | 0.00 | 67 | 1022.6 |
| 20260510044030 | 58 | 0 | 5.0 | 14.0 | 0.00 | 0.00 | 0.00 | 63 | 1022.4 |
| 20260510043526 | 58 | 0 | 6.0 | 16.0 | 0.00 | 0.00 | 0.00 | 60 | 1022.2 |
| 20260510043026 | 59 | 0 | 7.0 | 16.0 | 0.00 | 0.00 | 0.00 | 57 | 1022.1 |
| 20260510042459 | 59 | 0 | 8.0 | 18.0 | 0.00 | 0.00 | 0.00 | 56 | 1021.7 |
| 20260510041957 | 59 | 0 | 8.0 | 18.0 | 0.00 | 0.00 | 0.00 | 56 | 1021.6 |
| 20260510041442 | 59 | 0 | 9.0 | 22.0 | 0.00 | 0.00 | 0.00 | 55 | 1021.3 |
| 20260510041429 | 58 | 0 | 9.0 | 22.0 | 0.00 | 0.00 | 0.00 | 55 | 1021.0 |
| 20260510041047 | 58 | 0 | 9.0 | 22.0 | 0.00 | 0.00 | 0.00 | 55 | 1021.0 |
| 20260510040414 | 58 | 0 | 10.0 | 20.0 | 0.00 | 0.00 | 0.00 | 55 | 1020.6 |
| 20260510035912 | 58 | 0 | 10.0 | 20.0 | 0.00 | 0.00 | 0.00 | 55 | 1020.1 |
| 20260510035349 | 59 | 0 | 11.0 | 21.0 | 0.00 | 0.00 | 0.00 | 54 | 1019.9 |
| 20260510034832 | 59 | 0 | 11.0 | 24.0 | 0.00 | 0.00 | 0.00 | 54 | 1019.8 |
| 20260510034306 | 59 | 0 | 11.0 | 22.0 | 0.00 | 0.00 | 0.00 | 53 | 1019.4 |
| 20260510033748 | 59 | 0 | 10.0 | 21.0 | 0.00 | 0.00 | 0.00 | 53 | 1019.4 |
| 20260510033455 | 59 | 0 | 10.0 | 21.0 | 0.00 | 0.00 | 0.00 | 52 | 1019.5 |
| 20260510033340 | 59 | 0 | 10.0 | 21.0 | 0.00 | 0.00 | 0.00 | 52 | 1019.5 |
| 20260510032737 | 59 | 0 | 10.0 | 22.0 | 0.00 | 0.00 | 0.00 | 51 | 1019.1 |
| 20260510032232 | 60 | 0 | 10.0 | 21.0 | 0.00 | 0.00 | 0.00 | 51 | 1018.6 |
| 20260510031725 | 60 | 0 | 10.0 | 24.0 | 0.00 | 0.00 | 0.00 | 51 | 1018.7 |
| 20260510031207 | 60 | 0 | 10.0 | 24.0 | 0.00 | 0.00 | 0.00 | 50 | 1018.2 |
| 20260510030938 | 60 | 0 | 11.0 | 23.0 | 0.00 | 0.00 | 0.00 | 49 | 1017.7 |
| 20260510030809 | 60 | 0 | 11.0 | 23.0 | 0.00 | 0.00 | 0.00 | 49 | 1017.7 |
| 20260510030207 | 61 | 0 | 11.0 | 23.0 | 0.00 | 0.00 | 0.00 | 48 | 1017.2 |
| 20260510025638 | 61 | 0 | 11.0 | 21.0 | 0.00 | 0.00 | 0.00 | 47 | 1016.9 |
| 20260510025107 | 62 | 0 | 11.0 | 22.0 | 0.00 | 0.00 | 0.00 | 46 | 1016.8 |
| 20260510024609 | 62 | 0 | 9.0 | 22.0 | 0.00 | 0.00 | 0.00 | 45 | 1016.6 |
| 20260510024042 | 62 | 0 | 7.0 | 17.0 | 0.00 | 0.00 | 0.00 | 43 | 1016.3 |
| 20260510023515 | 63 | 0 | 8.0 | 17.0 | 0.00 | 0.00 | 0.00 | 42 | 1016.3 |
| 20260510023012 | 63 | 0 | 8.0 | 14.0 | 0.00 | 0.00 | 0.00 | 42 | 1016.0 |
| 20260510022508 | 63 | 0 | 7.0 | 14.0 | 0.00 | 0.00 | 0.00 | 41 | 1016.0 |
| 20260510022006 | 64 | 0 | 7.0 | 15.0 | 0.00 | 0.00 | 0.00 | 41 | 1016.0 |
| 20260510021501 | 64 | 0 | 7.0 | 15.0 | 0.00 | 0.00 | 0.00 | 40 | 1016.0 |
| 20260510020957 | 64 | 0 | 6.0 | 16.0 | 0.00 | 0.00 | 0.00 | 40 | 1015.9 |
| 20260510020430 | 65 | 0 | 7.0 | 16.0 | 0.00 | 0.00 | 0.00 | 40 | 1015.9 |
| 20260510015905 | 65 | 0 | 8.0 | 16.0 | 0.00 | 0.00 | 0.00 | 39 | 1015.8 |
| 20260510015400 | 66 | 0 | 9.0 | 17.0 | 0.00 | 0.00 | 0.00 | 39 | 1015.6 |
| 20260510014850 | 66 | 0 | 10.0 | 23.0 | 0.00 | 0.00 | 0.00 | 39 | 1015.3 |
| 20260510014346 | 66 | 0 | 9.0 | 20.0 | 0.00 | 0.00 | 0.00 | 39 | 1015.0 |
| 20260510013823 | 67 | 0 | 10.0 | 20.0 | 0.00 | 0.00 | 0.00 | 39 | 1014.7 |
| 20260510013317 | 67 | 0 | 9.0 | 22.0 | 0.00 | 0.00 | 0.00 | 38 | 1014.4 |
| 20260510012750 | 68 | 0 | 10.0 | 22.0 | 0.00 | 0.00 | 0.00 | 38 | 1014.1 |
| 20260510012225 | 68 | 0 | 12.0 | 22.0 | 0.00 | 0.00 | 0.00 | 38 | 1013.8 |
| 20260510011658 | 69 | 0 | 12.0 | 22.0 | 0.00 | 0.00 | 0.00 | 37 | 1013.9 |
| 20260510011634 | 69 | 0 | 12.0 | 24.0 | 0.00 | 0.00 | 0.00 | 37 | 1013.9 |
| 20260510011241 | 69 | 0 | 12.0 | 24.0 | 0.00 | 0.00 | 0.00 | 37 | 1013.9 |
| 20260510010639 | 70 | 0 | 12.0 | 25.0 | 0.00 | 0.00 | 0.00 | 37 | 1014.1 |
| 20260510010631 | 70 | 0 | 10.0 | 25.0 | 0.00 | 0.00 | 0.00 | 37 | 1014.3 |
| 20260510010242 | 70 | 0 | 10.0 | 25.0 | 0.00 | 0.00 | 0.00 | 37 | 1014.3 |
| 20260510010013 | 71 | 0 | 10.0 | 19.0 | 0.00 | 0.00 | 0.00 | 37 | 1014.5 |
| 20260510005934 | 71 | 0 | 10.0 | 19.0 | 0.00 | 0.00 | 0.00 | 37 | 1014.5 |
| 20260510005139 | 71 | 0 | 9.0 | 19.0 | 0.00 | 0.00 | 0.00 | 36 | 1014.2 |
| 20260510004611 | 71 | 0 | 9.0 | 19.0 | 0.00 | 0.00 | 0.00 | 36 | 1013.9 |
| 20260510004107 | 71 | 0 | 8.0 | 19.0 | 0.00 | 0.00 | 0.00 | 37 | 1013.8 |
| 20260510003046 | 71 | 0 | 10.0 | 18.0 | 0.00 | 0.00 | 0.00 | 37 | 1013.6 |
| 20260510002528 | 72 | 0 | 9.0 | 21.0 | 0.00 | 0.00 | 0.00 | 37 | 1013.6 |
| 20260510002025 | 72 | 0 | 10.0 | 21.0 | 0.00 | 0.00 | 0.00 | 36 | 1013.6 |
| 20260510001504 | 73 | 0 | 11.0 | 26.0 | 0.00 | 0.00 | 0.00 | 36 | 1013.6 |
| 20260510000933 | 73 | 0 | 10.0 | 26.0 | 0.00 | 0.00 | 0.00 | 35 | 1013.4 |
| 20260510000406 | 74 | 0 | 9.0 | 23.0 | 0.00 | 0.00 | 0.00 | 34 | 1013.0 |
| 20260509235904 | 75 | 0 | 10.0 | 21.0 | 0.00 | 0.00 | 0.00 | 32 | 1013.0 |
| 20260509235335 | 76 | 0 | 9.0 | 20.0 | 0.00 | 0.00 | 0.00 | 33 | 1013.1 |
| 20260509234810 | 76 | 0 | 9.0 | 20.0 | 0.00 | 0.00 | 0.00 | 32 | 1013.0 |
| 20260509234512 | 76 | 0 | 10.0 | 22.0 | 0.00 | 0.00 | 0.00 | 32 | 1013.0 |
| 20260509234346 | 76 | 0 | 10.0 | 22.0 | 0.00 | 0.00 | 0.00 | 32 | 1013.0 |
| 20260509233730 | 76 | 0 | 11.0 | 26.0 | 0.00 | 0.00 | 0.00 | 32 | 1013.1 |
| 20260509233554 | 76 | 0 | 10.0 | 22.0 | 0.00 | 0.00 | 0.00 | 32 | 1013.1 |
| 20260509233522 | 76 | 0 | 10.0 | 22.0 | 0.00 | 0.00 | 0.00 | 32 | 1013.1 |
| 20260509232658 | 76 | 0 | 9.0 | 20.0 | 0.00 | 0.00 | 0.00 | 32 | 1013.0 |
| 20260509232149 | 76 | 0 | 10.0 | 19.0 | 0.00 | 0.00 | 0.00 | 32 | 1013.1 |
| 20260509231647 | 76 | 0 | 11.0 | 19.0 | 0.00 | 0.00 | 0.00 | 32 | 1013.0 |
| 20260509231130 | 76 | 0 | 12.0 | 20.0 | 0.00 | 0.00 | 0.00 | 32 | 1013.0 |
| 20260509230604 | 76 | 0 | 12.0 | 24.0 | 0.00 | 0.00 | 0.00 | 32 | 1013.0 |
| 20260509230105 | 76 | 0 | 11.0 | 26.0 | 0.00 | 0.00 | 0.00 | 31 | 1012.6 |
| 20260509225555 | 77 | 0 | 11.0 | 26.0 | 0.00 | 0.00 | 0.00 | 32 | 1012.6 |
| 20260509225029 | 77 | 0 | 12.0 | 24.0 | 0.00 | 0.00 | 0.00 | 32 | 1012.6 |
| 20260509224502 | 77 | 0 | 13.0 | 27.0 | 0.00 | 0.00 | 0.00 | 31 | 1012.6 |
| 20260509223959 | 77 | 0 | 13.0 | 27.0 | 0.00 | 0.00 | 0.00 | 31 | 1012.5 |
| 20260509223444 | 77 | 0 | 13.0 | 29.0 | 0.00 | 0.00 | 0.00 | 32 | 1012.5 |
| 20260509222937 | 77 | 0 | 14.0 | 29.0 | 0.00 | 0.00 | 0.00 | 31 | 1012.5 |
| 20260509222430 | 77 | 0 | 14.0 | 29.0 | 0.00 | 0.00 | 0.00 | 32 | 1012.4 |
| 20260509221927 | 78 | 0 | 13.0 | 29.0 | 0.00 | 0.00 | 0.00 | 31 | 1012.3 |
| 20260509221422 | 78 | 0 | 13.0 | 30.0 | 0.00 | 0.00 | 0.00 | 31 | 1012.3 |
| 20260509220920 | 78 | 0 | 14.0 | 30.0 | 0.00 | 0.00 | 0.00 | 31 | 1012.1 |
| 20260509220416 | 78 | 0 | 14.0 | 26.0 | 0.00 | 0.00 | 0.00 | 30 | 1012.0 |
| 20260509215900 | 79 | 0 | 12.0 | 25.0 | 0.00 | 0.00 | 0.00 | 29 | 1011.9 |
| 20260509215359 | 80 | 0 | 13.0 | 24.0 | 0.00 | 0.00 | 0.00 | 29 | 1011.9 |
| 20260509214838 | 80 | 0 | 12.0 | 23.0 | 0.00 | 0.00 | 0.00 | 29 | 1011.7 |
| 20260509214329 | 81 | 0 | 11.0 | 24.0 | 0.00 | 0.00 | 0.00 | 29 | 1011.7 |
| 20260509213828 | 82 | 0 | 11.0 | 25.0 | 0.00 | 0.00 | 0.00 | 28 | 1011.6 |
| 20260509213552 | 83 | 0 | 7.0 | 25.0 | 0.00 | 0.00 | 0.00 | 27 | 1011.6 |
| 20260509213426 | 83 | 0 | 7.0 | 25.0 | 0.00 | 0.00 | 0.00 | 27 | 1011.6 |
| 20260509212824 | 84 | 40 | 5.0 | 19.0 | 0.00 | 0.00 | 0.00 | 26 | 1011.4 |
| 20260509212314 | 85 | 314 | 5.0 | 13.0 | 0.00 | 0.00 | 0.00 | 24 | 1011.4 |
| 20260509211749 | 85 | 0 | 5.0 | 13.0 | 0.00 | 0.00 | 0.00 | 26 | 1011.3 |
| 20260509211219 | 85 | 0 | 5.0 | 14.0 | 0.00 | 0.00 | 0.00 | 25 | 1011.4 |
| 20260509210720 | 85 | 0 | 5.0 | 14.0 | 0.00 | 0.00 | 0.00 | 26 | 1011.4 |
| 20260509210226 | 85 | 0 | 5.0 | 17.0 | 0.00 | 0.00 | 0.00 | 25 | 1011.3 |
| 20260509205718 | 85 | 0 | 6.0 | 17.0 | 0.00 | 0.00 | 0.00 | 26 | 1011.3 |
| 20260509205207 | 85 | 0 | 6.0 | 19.0 | 0.00 | 0.00 | 0.00 | 26 | 1011.4 |
| 20260509204704 | 85 | 0 | 6.0 | 19.0 | 0.00 | 0.00 | 0.00 | 26 | 1011.3 |
| 20260509204537 | 85 | 0 | 5.0 | 16.0 | 0.00 | 0.00 | 0.00 | 26 | 1011.2 |
| 20260509204506 | 85 | 0 | 5.0 | 16.0 | 0.00 | 0.00 | 0.00 | 26 | 1011.2 |
| 20260509203704 | 85 | 0 | 4.0 | 16.0 | 0.00 | 0.00 | 0.00 | 26 | 1011.3 |
| 20260509203135 | 85 | 0 | 5.0 | 13.0 | 0.00 | 0.00 | 0.00 | 24 | 1011.2 |
| 20260509202618 | 85 | 0 | 6.0 | 12.0 | 0.00 | 0.00 | 0.00 | 24 | 1011.1 |
| 20260509202047 | 86 | 0 | 4.0 | 13.0 | 0.00 | 0.00 | 0.00 | 22 | 1011.2 |
| 20260509201522 | 87 | 0 | 2.0 | 10.0 | 0.00 | 0.00 | 0.00 | 23 | 1011.2 |
| 20260509200955 | 86 | 0 | 4.0 | 10.0 | 0.00 | 0.00 | 0.00 | 23 | 1011.2 |
| 20260509200732 | 85 | 0 | 4.0 | 10.0 | 0.00 | 0.00 | 0.00 | 24 | 1011.2 |
| 20260509200605 | 85 | 0 | 4.0 | 10.0 | 0.00 | 0.00 | 0.00 | 24 | 1011.2 |
| 20260509195954 | 86 | 21 | 4.0 | 13.0 | 0.00 | 0.00 | 0.00 | 25 | 1011.1 |
| 20260509195431 | 85 | 279 | 4.0 | 13.0 | 0.00 | 0.00 | 0.00 | 24 | 1011.1 |
| 20260509194905 | 85 | 315 | 4.0 | 10.0 | 0.00 | 0.00 | 0.00 | 24 | 1011.1 |
| 20260509194342 | 85 | 0 | 4.0 | 9.0 | 0.00 | 0.00 | 0.00 | 25 | 1011.0 |
| 20260509193839 | 85 | 0 | 4.0 | 9.0 | 0.00 | 0.00 | 0.00 | 24 | 1011.0 |
| 20260509193340 | 84 | 0 | 5.0 | 13.0 | 0.00 | 0.00 | 0.00 | 25 | 1011.0 |
| 20260509193027 | 84 | 0 | 5.0 | 13.0 | 0.00 | 0.00 | 0.00 | 25 | 1011.0 |
| 20260509192912 | 84 | 0 | 5.0 | 13.0 | 0.00 | 0.00 | 0.00 | 25 | 1011.0 |
| 20260509192258 | 84 | 0 | 6.0 | 14.0 | 0.00 | 0.00 | 0.00 | 25 | 1011.0 |
| 20260509191755 | 84 | 0 | 5.0 | 14.0 | 0.00 | 0.00 | 0.00 | 25 | 1011.0 |
| 20260509191301 | 84 | 0 | 5.0 | 11.0 | 0.00 | 0.00 | 0.00 | 24 | 1010.9 |
| 20260509190754 | 84 | 0 | 6.0 | 12.0 | 0.00 | 0.00 | 0.00 | 24 | 1010.9 |
| 20260509190526 | 83 | 0 | 5.0 | 12.0 | 0.00 | 0.00 | 0.00 | 25 | 1010.9 |
| 20260509190357 | 83 | 0 | 5.0 | 12.0 | 0.00 | 0.00 | 0.00 | 25 | 1010.9 |
| 20260509185750 | 83 | 0 | 4.0 | 11.0 | 0.00 | 0.00 | 0.00 | 24 | 1011.0 |
| 20260509185503 | 83 | 0 | 6.0 | 12.0 | 0.00 | 0.00 | 0.00 | 24 | 1011.1 |
| 20260509185350 | 83 | 0 | 6.0 | 12.0 | 0.00 | 0.00 | 0.00 | 24 | 1011.1 |
| 20260509184939 | 82 | 0 | 7.0 | 17.0 | 0.00 | 0.00 | 0.00 | 25 | 1011.1 |
| 20260509184851 | 83 | 0 | 5.0 | 14.0 | 0.00 | 0.00 | 0.00 | 25 | 1011.0 |
| 20260509184821 | 82 | 0 | 7.0 | 17.0 | 0.00 | 0.00 | 0.00 | 25 | 1011.1 |
| 20260509184319 | 83 | 0 | 5.0 | 14.0 | 0.00 | 0.00 | 0.00 | 25 | 1011.0 |
| 20260509183701 | 83 | 0 | 4.0 | 11.0 | 0.00 | 0.00 | 0.00 | 25 | 1011.0 |
| 20260509183134 | 82 | 0 | 4.0 | 11.0 | 0.00 | 0.00 | 0.00 | 25 | 1011.1 |
| 20260509182607 | 82 | 0 | 4.0 | 12.0 | 0.00 | 0.00 | 0.00 | 25 | 1011.1 |
| 20260509182554 | 83 | 0 | 4.0 | 12.0 | 0.00 | 0.00 | 0.00 | 24 | 1011.1 |
| 20260509182208 | 83 | 0 | 4.0 | 12.0 | 0.00 | 0.00 | 0.00 | 24 | 1011.1 |
| 20260509181608 | 83 | 0 | 5.0 | 16.0 | 0.00 | 0.00 | 0.00 | 24 | 1011.2 |
| 20260509181054 | 83 | 0 | 4.0 | 16.0 | 0.00 | 0.00 | 0.00 | 26 | 1011.1 |
| 20260509180551 | 82 | 0 | 5.0 | 12.0 | 0.00 | 0.00 | 0.00 | 27 | 1011.1 |
| 20260509175544 | 82 | 0 | 4.0 | 12.0 | 0.00 | 0.00 | 0.00 | 26 | 1011.4 |
| 20260509175024 | 82 | 0 | 5.0 | 14.0 | 0.00 | 0.00 | 0.00 | 27 | 1011.4 |
| 20260509174724 | 81 | 0 | 6.0 | 14.0 | 0.00 | 0.00 | 0.00 | 27 | 1011.6 |
| 20260509174603 | 81 | 0 | 6.0 | 14.0 | 0.00 | 0.00 | 0.00 | 27 | 1011.6 |
| 20260509173935 | 81 | 0 | 5.0 | 13.0 | 0.00 | 0.00 | 0.00 | 27 | 1011.6 |
| 20260509173429 | 81 | 0 | 5.0 | 13.0 | 0.00 | 0.00 | 0.00 | 28 | 1011.6 |
| 20260509172903 | 80 | 0 | 5.0 | 11.0 | 0.00 | 0.00 | 0.00 | 30 | 1011.7 |
| 20260509172358 | 80 | 0 | 6.0 | 14.0 | 0.00 | 0.00 | 0.00 | 31 | 1011.9 |
| 20260509171832 | 79 | 0 | 6.0 | 17.0 | 0.00 | 0.00 | 0.00 | 30 | 1011.9 |
| 20260509171640 | 78 | 0 | 8.0 | 17.0 | 0.00 | 0.00 | 0.00 | 31 | 1012.2 |
| 20260509171603 | 78 | 0 | 8.0 | 17.0 | 0.00 | 0.00 | 0.00 | 31 | 1012.2 |
| 20260509170749 | 78 | 0 | 8.0 | 16.0 | 0.00 | 0.00 | 0.00 | 31 | 1012.1 |
| 20260509170300 | 77 | 0 | 8.0 | 20.0 | 0.00 | 0.00 | 0.00 | 31 | 1012.1 |
| 20260509170010 | 77 | 0 | 8.0 | 20.0 | 0.00 | 0.00 | 0.00 | 32 | 1012.2 |
| 20260509165850 | 77 | 0 | 8.0 | 20.0 | 0.00 | 0.00 | 0.00 | 32 | 1012.2 |
| 20260509165511 | 77 | 0 | 8.0 | 18.0 | 0.00 | 0.00 | 0.00 | 32 | 1012.2 |
| 20260509165350 | 77 | 0 | 8.0 | 18.0 | 0.00 | 0.00 | 0.00 | 32 | 1012.2 |
| 20260509164716 | 76 | 0 | 9.0 | 18.0 | 0.00 | 0.00 | 0.00 | 32 | 1012.2 |
| 20260509164216 | 76 | 0 | 9.0 | 22.0 | 0.00 | 0.00 | 0.00 | 33 | 1012.3 |
| 20260509163659 | 76 | 0 | 9.0 | 22.0 | 0.00 | 0.00 | 0.00 | 32 | 1012.3 |
| 20260509163155 | 76 | 0 | 8.0 | 20.0 | 0.00 | 0.00 | 0.00 | 33 | 1012.2 |
| 20260509162653 | 76 | 0 | 8.0 | 20.0 | 0.00 | 0.00 | 0.00 | 33 | 1012.3 |
| 20260509162149 | 75 | 0 | 8.0 | 21.0 | 0.00 | 0.00 | 0.00 | 34 | 1012.3 |
| 20260509161624 | 75 | 0 | 8.0 | 21.0 | 0.00 | 0.00 | 0.00 | 33 | 1012.3 |
| 20260509161118 | 74 | 0 | 6.0 | 20.0 | 0.00 | 0.00 | 0.00 | 34 | 1012.3 |
| 20260509160552 | 74 | 0 | 7.0 | 14.0 | 0.00 | 0.00 | 0.00 | 36 | 1012.4 |
| 20260509160104 | 73 | 0 | 9.0 | 20.0 | 0.00 | 0.00 | 0.00 | 36 | 1012.4 |
| 20260509155522 | 73 | 0 | 10.0 | 24.0 | 0.00 | 0.00 | 0.00 | 35 | 1012.4 |
| 20260509154957 | 72 | 0 | 10.0 | 25.0 | 0.00 | 0.00 | 0.00 | 35 | 1012.6 |
| 20260509154701 | 72 | 0 | 8.0 | 25.0 | 0.00 | 0.00 | 0.00 | 36 | 1012.5 |
| 20260509154534 | 72 | 0 | 8.0 | 25.0 | 0.00 | 0.00 | 0.00 | 36 | 1012.5 |
| 20260509154150 | 71 | 0 | 7.0 | 20.0 | 0.00 | 0.00 | 0.00 | 38 | 1012.5 |
| 20260509154031 | 71 | 0 | 7.0 | 20.0 | 0.00 | 0.00 | 0.00 | 38 | 1012.5 |
| 20260509153426 | 71 | 0 | 8.0 | 24.0 | 0.00 | 0.00 | 0.00 | 38 | 1012.7 |
| 20260509153416 | 70 | 0 | 8.0 | 24.0 | 0.00 | 0.00 | 0.00 | 39 | 1012.8 |
| 20260509153025 | 70 | 0 | 8.0 | 24.0 | 0.00 | 0.00 | 0.00 | 39 | 1012.8 |
| 20260509152358 | 69 | 0 | 10.0 | 20.0 | 0.00 | 0.00 | 0.00 | 39 | 1013.0 |
| 20260509151859 | 69 | 0 | 10.0 | 20.0 | 0.00 | 0.00 | 0.00 | 39 | 1012.8 |
| 20260509151353 | 69 | 0 | 9.0 | 20.0 | 0.00 | 0.00 | 0.00 | 40 | 1012.8 |
| 20260509150826 | 68 | 0 | 9.0 | 20.0 | 0.00 | 0.00 | 0.00 | 40 | 1013.0 |
| 20260509150330 | 68 | 0 | 9.0 | 18.0 | 0.00 | 0.00 | 0.00 | 40 | 1013.2 |
| 20260509145818 | 67 | 0 | 8.0 | 23.0 | 0.00 | 0.00 | 0.00 | 41 | 1013.4 |
| 20260509145253 | 67 | 0 | 9.0 | 23.0 | 0.00 | 0.00 | 0.00 | 41 | 1013.4 |
| 20260509144727 | 66 | 0 | 9.0 | 18.0 | 0.00 | 0.00 | 0.00 | 41 | 1013.4 |
| 20260509144220 | 65 | 0 | 7.0 | 18.0 | 0.00 | 0.00 | 0.00 | 42 | 1013.4 |
| 20260509143938 | 64 | 0 | 6.0 | 14.0 | 0.00 | 0.00 | 0.00 | 46 | 1013.3 |
| 20260509143821 | 64 | 0 | 6.0 | 14.0 | 0.00 | 0.00 | 0.00 | 46 | 1013.3 |
| 20260509143150 | 63 | 0 | 6.0 | 13.0 | 0.00 | 0.00 | 0.00 | 48 | 1013.5 |
| 20260509142647 | 62 | 0 | 5.0 | 13.0 | 0.00 | 0.00 | 0.00 | 49 | 1013.6 |
| 20260509142135 | 62 | 0 | 5.0 | 13.0 | 0.00 | 0.00 | 0.00 | 51 | 1013.4 |
| 20260509141609 | 61 | 0 | 5.0 | 11.0 | 0.00 | 0.00 | 0.00 | 52 | 1013.4 |
| 20260509141043 | 61 | 0 | 5.0 | 11.0 | 0.00 | 0.00 | 0.00 | 52 | 1013.4 |
| 20260509140802 | 60 | 0 | 5.0 | 11.0 | 0.00 | 0.00 | 0.00 | 52 | 1013.5 |
| 20260509140644 | 60 | 0 | 5.0 | 11.0 | 0.00 | 0.00 | 0.00 | 52 | 1013.5 |
| 20260509140033 | 60 | 0 | 5.0 | 11.0 | 0.00 | 0.00 | 0.00 | 52 | 1013.5 |
| 20260509135528 | 60 | 0 | 5.0 | 12.0 | 0.00 | 0.00 | 0.00 | 53 | 1013.7 |
| 20260509135003 | 59 | 0 | 5.0 | 12.0 | 0.00 | 0.00 | 0.00 | 53 | 1013.8 |
| 20260509134503 | 59 | 0 | 6.0 | 11.0 | 0.00 | 0.00 | 0.00 | 53 | 1013.9 |
| 20260509133937 | 59 | 0 | 6.0 | 13.0 | 0.00 | 0.00 | 0.00 | 53 | 1013.7 |
| 20260509133411 | 59 | 0 | 6.0 | 13.0 | 0.00 | 0.00 | 0.00 | 53 | 1013.7 |
| 20260509132855 | 58 | 0 | 6.0 | 13.0 | 0.00 | 0.00 | 0.00 | 54 | 1013.6 |
| 20260509132400 | 58 | 0 | 5.0 | 13.0 | 0.00 | 0.00 | 0.00 | 54 | 1013.6 |
| 20260509131852 | 58 | 0 | 5.0 | 10.0 | 0.00 | 0.00 | 0.00 | 54 | 1013.5 |
| 20260509131350 | 58 | 0 | 6.0 | 11.0 | 0.00 | 0.00 | 0.00 | 55 | 1013.4 |
| 20260509131112 | 58 | 0 | 5.0 | 11.0 | 0.00 | 0.00 | 0.00 | 56 | 1013.4 |
| 20260509130955 | 58 | 0 | 5.0 | 11.0 | 0.00 | 0.00 | 0.00 | 56 | 1013.4 |
| 20260509130349 | 57 | 0 | 5.0 | 11.0 | 0.00 | 0.00 | 0.00 | 57 | 1013.3 |
| 20260509125838 | 57 | 0 | 5.0 | 11.0 | 0.00 | 0.00 | 0.00 | 57 | 1013.2 |
| 20260509125536 | 57 | 0 | 6.0 | 13.0 | 0.00 | 0.00 | 0.00 | 57 | 1013.2 |
| 20260509125418 | 57 | 0 | 6.0 | 13.0 | 0.00 | 0.00 | 0.00 | 57 | 1013.2 |
| 20260509124750 | 56 | 0 | 7.0 | 13.0 | 0.00 | 0.00 | 0.00 | 58 | 1013.3 |
| 20260509124514 | 56 | 0 | 6.0 | 15.0 | 0.00 | 0.00 | 0.00 | 59 | 1013.4 |
| 20260509124353 | 56 | 0 | 6.0 | 15.0 | 0.00 | 0.00 | 0.00 | 59 | 1013.4 |
| 20260509123726 | 56 | 0 | 5.0 | 15.0 | 0.00 | 0.00 | 0.00 | 60 | 1013.3 |
| 20260509123151 | 55 | 0 | 4.0 | 12.0 | 0.00 | 0.00 | 0.00 | 61 | 1013.3 |
| 20260509122631 | 55 | 0 | 4.0 | 10.0 | 0.00 | 0.00 | 0.00 | 61 | 1013.0 |
| 20260509122107 | 55 | 0 | 4.0 | 10.0 | 0.00 | 0.00 | 0.00 | 62 | 1013.1 |
| 20260509121605 | 55 | 0 | 4.0 | 9.0 | 0.00 | 0.00 | 0.00 | 62 | 1013.3 |
| 20260509121113 | 55 | 0 | 5.0 | 11.0 | 0.00 | 0.00 | 0.00 | 63 | 1013.2 |
| 20260509120754 | 54 | 0 | 5.0 | 11.0 | 0.00 | 0.00 | 0.00 | 63 | 1013.1 |
| 20260509120641 | 54 | 0 | 5.0 | 11.0 | 0.00 | 0.00 | 0.00 | 63 | 1013.1 |
| 20260509120007 | 54 | 0 | 4.0 | 9.0 | 0.00 | 0.00 | 0.00 | 64 | 1013.0 |
| 20260509115448 | 54 | 0 | 3.0 | 6.0 | 0.00 | 0.00 | 0.00 | 64 | 1013.0 |
| 20260509114926 | 53 | 0 | 2.0 | 6.0 | 0.00 | 0.00 | 0.00 | 65 | 1012.8 |
| 20260509114428 | 53 | 0 | 2.0 | 5.0 | 0.00 | 0.00 | 0.00 | 65 | 1012.7 |
| 20260509113925 | 53 | 0 | 2.0 | 5.0 | 0.00 | 0.00 | 0.00 | 66 | 1012.6 |
| 20260509113402 | 53 | 0 | 2.0 | 6.0 | 0.00 | 0.00 | 0.00 | 66 | 1012.7 |
| 20260509112900 | 52 | 0 | 2.0 | 6.0 | 0.00 | 0.00 | 0.00 | 66 | 1012.7 |
| 20260509112621 | 52 | 0 | 2.0 | 5.0 | 0.00 | 0.00 | 0.00 | 67 | 1012.7 |
| 20260509112503 | 52 | 0 | 2.0 | 5.0 | 0.00 | 0.00 | 0.00 | 67 | 1012.7 |
| 20260509111839 | 52 | 0 | 2.0 | 5.0 | 0.00 | 0.00 | 0.00 | 67 | 1012.8 |
| 20260509111327 | 52 | 0 | 2.0 | 4.0 | 0.00 | 0.00 | 0.00 | 67 | 1012.8 |
| 20260509111313 | 51 | 0 | 3.0 | 4.0 | 0.00 | 0.00 | 0.00 | 68 | 1012.8 |
| 20260509110932 | 51 | 0 | 3.0 | 4.0 | 0.00 | 0.00 | 0.00 | 68 | 1012.8 |
| 20260509110323 | 51 | 0 | 3.0 | 5.0 | 0.00 | 0.00 | 0.00 | 68 | 1012.7 |
| 20260509110008 | 51 | 0 | 2.0 | 6.0 | 0.00 | 0.00 | 0.00 | 69 | 1013.0 |
| 20260509105858 | 51 | 0 | 3.0 | 5.0 | 0.00 | 0.00 | 0.00 | 69 | 1013.0 |
| 20260509105347 | 51 | 0 | 2.0 | 6.0 | 0.00 | 0.00 | 0.00 | 69 | 1013.0 |
| 20260509104742 | 50 | 0 | 3.0 | 6.0 | 0.00 | 0.00 | 0.00 | 69 | 1013.0 |
| 20260509104237 | 50 | 0 | 2.0 | 6.0 | 0.00 | 0.00 | 0.00 | 69 | 1013.0 |
| 20260509103738 | 50 | 0 | 2.0 | 6.0 | 0.00 | 0.00 | 0.00 | 69 | 1012.8 |
| 20260509103237 | 50 | 0 | 1.0 | 4.0 | 0.00 | 0.00 | 0.00 | 69 | 1012.8 |
| 20260509102731 | 50 | 0 | 1.0 | 4.0 | 0.00 | 0.00 | 0.00 | 68 | 1012.8 |
| 20260509102214 | 50 | 0 | 2.0 | 5.0 | 0.00 | 0.00 | 0.00 | 68 | 1013.0 |
| 20260509101644 | 50 | 0 | 2.0 | 5.0 | 0.00 | 0.00 | 0.00 | 68 | 1013.1 |
| 20260509101119 | 50 | 0 | 2.0 | 6.0 | 0.00 | 0.00 | 0.00 | 67 | 1013.1 |
| 20260509100604 | 50 | 0 | 3.0 | 6.0 | 0.00 | 0.00 | 0.00 | 67 | 1013.2 |
| 20260509100052 | 50 | 0 | 3.0 | 5.0 | 0.00 | 0.00 | 0.00 | 67 | 1013.2 |
| 20260509095513 | 50 | 0 | 2.0 | 5.0 | 0.00 | 0.00 | 0.00 | 67 | 1013.3 |
| 20260509095005 | 50 | 0 | 2.0 | 5.0 | 0.00 | 0.00 | 0.00 | 66 | 1013.2 |
| 20260509094509 | 50 | 0 | 2.0 | 5.0 | 0.00 | 0.00 | 0.00 | 66 | 1013.2 |
| 20260509094314 | 50 | 0 | 2.0 | 6.0 | 0.00 | 0.00 | 0.00 | 66 | 1013.3 |
| 20260509094242 | 50 | 0 | 2.0 | 6.0 | 0.00 | 0.00 | 0.00 | 66 | 1013.3 |
| 20260509093810 | 50 | 0 | 2.0 | 5.0 | 0.00 | 0.00 | 0.00 | 65 | 1013.3 |
| 20260509093739 | 50 | 0 | 2.0 | 5.0 | 0.00 | 0.00 | 0.00 | 65 | 1013.3 |
| 20260509092912 | 50 | 0 | 3.0 | 6.0 | 0.00 | 0.00 | 0.00 | 66 | 1013.3 |
| 20260509092346 | 50 | 0 | 3.0 | 6.0 | 0.00 | 0.00 | 0.00 | 66 | 1013.4 |
| 20260509091821 | 49 | 0 | 3.0 | 6.0 | 0.00 | 0.00 | 0.00 | 67 | 1013.5 |
| 20260509091304 | 49 | 0 | 2.0 | 4.0 | 0.00 | 0.00 | 0.00 | 67 | 1013.4 |
| 20260509090750 | 49 | 0 | 2.0 | 3.0 | 0.00 | 0.00 | 0.00 | 68 | 1013.4 |
| 20260509090226 | 49 | 0 | 2.0 | 3.0 | 0.00 | 0.00 | 0.00 | 68 | 1013.3 |
| 20260509085725 | 49 | 0 | 1.0 | 4.0 | 0.00 | 0.00 | 0.00 | 68 | 1013.4 |
| 20260509085222 | 49 | 0 | 1.0 | 4.0 | 0.00 | 0.00 | 0.00 | 68 | 1013.3 |
| 20260509085047 | 49 | 0 | 1.0 | 3.0 | 0.00 | 0.00 | 0.00 | 69 | 1013.4 |
| 20260509085008 | 49 | 0 | 1.0 | 3.0 | 0.00 | 0.00 | 0.00 | 69 | 1013.4 |
| 20260509084216 | 49 | 0 | 2.0 | 3.0 | 0.00 | 0.00 | 0.00 | 69 | 1013.4 |
| 20260509083713 | 49 | 0 | 2.0 | 4.0 | 0.00 | 0.00 | 0.00 | 69 | 1013.4 |
| 20260509083200 | 48 | 0 | 2.0 | 4.0 | 0.00 | 0.00 | 0.00 | 69 | 1013.4 |
| 20260509082657 | 48 | 0 | 2.0 | 4.0 | 0.00 | 0.00 | 0.00 | 69 | 1013.4 |
| 20260509082150 | 48 | 0 | 2.0 | 4.0 | 0.00 | 0.00 | 0.00 | 69 | 1013.4 |
| 20260509081913 | 48 | 0 | 1.0 | 6.0 | 0.00 | 0.00 | 0.00 | 69 | 1013.4 |
| 20260509081750 | 48 | 0 | 1.0 | 6.0 | 0.00 | 0.00 | 0.00 | 69 | 1013.4 |
| 20260509081133 | 48 | 0 | 0.0 | 1.0 | 0.00 | 0.00 | 0.00 | 70 | 1013.5 |
| 20260509080629 | 48 | 0 | 0.0 | 1.0 | 0.00 | 0.00 | 0.00 | 70 | 1013.4 |
| 20260509080336 | 48 | 0 | 0.0 | 3.0 | 0.00 | 0.00 | 0.00 | 70 | 1013.5 |
| 20260509080221 | 48 | 0 | 0.0 | 3.0 | 0.00 | 0.00 | 0.00 | 70 | 1013.5 |
| 20260509075616 | 48 | 0 | 1.0 | 3.0 | 0.00 | 0.00 | 0.00 | 69 | 1013.5 |
| 20260509075116 | 48 | 0 | 1.0 | 3.0 | 0.00 | 0.00 | 0.00 | 69 | 1013.5 |
| 20260509074618 | 48 | 0 | 1.0 | 3.0 | 0.00 | 0.00 | 0.00 | 68 | 1013.5 |
| 20260509074050 | 48 | 0 | 1.0 | 3.0 | 0.00 | 0.00 | 0.00 | 68 | 1013.4 |
| 20260509073521 | 48 | 0 | 1.0 | 2.0 | 0.00 | 0.00 | 0.00 | 68 | 1013.5 |
| 20260509073219 | 48 | 0 | 0.0 | 2.0 | 0.00 | 0.00 | 0.00 | 68 | 1013.4 |
| 20260509073101 | 48 | 0 | 0.0 | 2.0 | 0.00 | 0.00 | 0.00 | 68 | 1013.4 |
| 20260509072429 | 49 | 0 | 0.0 | 2.0 | 0.00 | 0.00 | 0.00 | 68 | 1013.6 |
| 20260509071924 | 49 | 0 | 0.0 | 2.0 | 0.00 | 0.00 | 0.00 | 68 | 1013.6 |
| 20260509071424 | 49 | 0 | 0.0 | 2.0 | 0.00 | 0.00 | 0.00 | 67 | 1013.7 |
| 20260509070918 | 50 | 0 | 0.0 | 0.0 | 0.00 | 0.00 | 0.00 | 66 | 1013.7 |
| 20260509070351 | 50 | 0 | 0.0 | 1.0 | 0.00 | 0.00 | 0.00 | 65 | 1013.7 |
| 20260509065846 | 51 | 0 | 0.0 | 1.0 | 0.00 | 0.00 | 0.00 | 64 | 1013.8 |
| 20260509065344 | 51 | 0 | 0.0 | 1.0 | 0.00 | 0.00 | 0.00 | 63 | 1013.7 |
| 20260509064839 | 51 | 0 | 0.0 | 1.0 | 0.00 | 0.00 | 0.00 | 63 | 1013.8 |
| 20260509064537 | 51 | 0 | 0.0 | 1.0 | 0.00 | 0.00 | 0.00 | 63 | 1013.9 |
| 20260509064419 | 51 | 0 | 0.0 | 1.0 | 0.00 | 0.00 | 0.00 | 63 | 1013.9 |
| 20260509063808 | 51 | 0 | 1.0 | 3.0 | 0.00 | 0.00 | 0.00 | 63 | 1013.8 |
| 20260509063254 | 51 | 0 | 1.0 | 3.0 | 0.00 | 0.00 | 0.00 | 63 | 1014.1 |
| 20260509063010 | 51 | 0 | 1.0 | 2.0 | 0.00 | 0.00 | 0.00 | 62 | 1013.8 |
| 20260509062855 | 51 | 0 | 1.0 | 2.0 | 0.00 | 0.00 | 0.00 | 62 | 1013.8 |
| 20260509062445 | 51 | 0 | 1.0 | 2.0 | 0.00 | 0.00 | 0.00 | 63 | 1013.9 |
| 20260509062329 | 51 | 0 | 1.0 | 2.0 | 0.00 | 0.00 | 0.00 | 63 | 1013.9 |
| 20260509062000 | 51 | 0 | 1.0 | 2.0 | 0.00 | 0.00 | 0.00 | 63 | 1014.1 |
| 20260509061829 | 51 | 0 | 1.0 | 2.0 | 0.00 | 0.00 | 0.00 | 63 | 1014.1 |
| 20260509061219 | 51 | 0 | 1.0 | 2.0 | 0.00 | 0.00 | 0.00 | 63 | 1014.1 |